sensor_id;sensor_type;location;lat;lon;timestamp;P1;durP1;ratioP1;P2;durP2;ratioP2
40595;SDS011;26304;48.794;9.820;2023-07-16T04:27:41;1.40;;;1.30;;
40595;SDS011;26304;48.794;9.820;2023-07-16T04:33:25;3.20;;;1.15;;
40595;SDS011;26304;48.794;9.820;2023-07-16T04:39:08;1.50;;;1.13;;
40595;SDS011;26304;48.794;9.820;2023-07-16T04:44:52;2.72;;;1.30;;
40595;SDS011;26304;48.794;9.820;2023-07-16T04:50:35;1.70;;;1.25;;
40595;SDS011;26304;48.794;9.820;2023-07-16T04:56:17;1.35;;;1.15;;
40595;SDS011;26304;48.794;9.820;2023-07-16T05:02:01;1.30;;;1.20;;
40595;SDS011;26304;48.794;9.820;2023-07-16T05:07:44;1.20;;;1.10;;
40595;SDS011;26304;48.794;9.820;2023-07-16T05:13:26;2.15;;;1.45;;
40595;SDS011;26304;48.794;9.820;2023-07-16T05:19:11;1.30;;;1.20;;
40595;SDS011;26304;48.794;9.820;2023-07-16T05:24:53;2.45;;;1.20;;
40595;SDS011;26304;48.794;9.820;2023-07-16T05:30:35;3.03;;;1.52;;
40595;SDS011;26304;48.794;9.820;2023-07-16T05:36:19;2.97;;;1.73;;
40595;SDS011;26304;48.794;9.820;2023-07-16T05:42:02;2.22;;;1.52;;
40595;SDS011;26304;48.794;9.820;2023-07-16T05:47:45;2.83;;;1.50;;
40595;SDS011;26304;48.794;9.820;2023-07-16T05:53:29;3.78;;;1.55;;
40595;SDS011;26304;48.794;9.820;2023-07-16T05:59:11;4.05;;;1.52;;
40595;SDS011;26304;48.794;9.820;2023-07-16T06:04:53;6.35;;;1.88;;
40595;SDS011;26304;48.794;9.820;2023-07-16T06:10:37;3.15;;;1.50;;
40595;SDS011;26304;48.794;9.820;2023-07-16T06:16:19;2.80;;;1.45;;
40595;SDS011;26304;48.794;9.820;2023-07-16T06:22:02;2.97;;;1.83;;
40595;SDS011;26304;48.794;9.820;2023-07-16T06:27:47;5.47;;;1.85;;
40595;SDS011;26304;48.794;9.820;2023-07-16T06:33:29;3.35;;;1.50;;
40595;SDS011;26304;48.794;9.820;2023-07-16T06:39:11;2.40;;;1.45;;
40595;SDS011;26304;48.794;9.820;2023-07-16T06:44:55;4.93;;;1.52;;
40595;SDS011;26304;48.794;9.820;2023-07-16T06:50:38;2.13;;;1.17;;
40595;SDS011;26304;48.794;9.820;2023-07-16T06:56:20;1.63;;;1.50;;
40595;SDS011;26304;48.794;9.820;2023-07-16T07:02:04;2.00;;;1.48;;
40595;SDS011;26304;48.794;9.820;2023-07-16T07:07:47;3.83;;;1.52;;
40595;SDS011;26304;48.794;9.820;2023-07-16T07:13:29;2.53;;;1.50;;
40595;SDS011;26304;48.794;9.820;2023-07-16T07:19:13;2.30;;;1.92;;
40595;SDS011;26304;48.794;9.820;2023-07-16T07:24:56;1.75;;;1.50;;
40595;SDS011;26304;48.794;9.820;2023-07-16T07:30:38;4.45;;;1.67;;
40595;SDS011;26304;48.794;9.820;2023-07-16T07:36:22;3.28;;;1.50;;
40595;SDS011;26304;48.794;9.820;2023-07-16T07:42:05;3.33;;;1.40;;
40595;SDS011;26304;48.794;9.820;2023-07-16T07:47:48;1.85;;;1.35;;
40595;SDS011;26304;48.794;9.820;2023-07-16T07:53:31;2.58;;;1.42;;
40595;SDS011;26304;48.794;9.820;2023-07-16T07:59:14;1.95;;;1.67;;
40595;SDS011;26304;48.794;9.820;2023-07-16T08:04:56;3.50;;;1.70;;
40595;SDS011;26304;48.794;9.820;2023-07-16T08:10:40;1.58;;;1.40;;
40595;SDS011;26304;48.794;9.820;2023-07-16T08:16:22;2.45;;;1.60;;
40595;SDS011;26304;48.794;9.820;2023-07-16T08:22:05;2.28;;;1.58;;
40595;SDS011;26304;48.794;9.820;2023-07-16T08:27:49;2.17;;;1.27;;
40595;SDS011;26304;48.794;9.820;2023-07-16T08:33:31;2.08;;;1.33;;
40595;SDS011;26304;48.794;9.820;2023-07-16T08:39:13;1.63;;;1.10;;
40595;SDS011;26304;48.794;9.820;2023-07-16T08:44:58;3.05;;;1.52;;
40595;SDS011;26304;48.794;9.820;2023-07-16T08:50:42;1.80;;;1.15;;
40595;SDS011;26304;48.794;9.820;2023-07-16T08:56:29;2.17;;;1.58;;
40595;SDS011;26304;48.794;9.820;2023-07-16T09:02:13;1.58;;;1.10;;
40595;SDS011;26304;48.794;9.820;2023-07-16T09:07:56;1.50;;;1.30;;
40595;SDS011;26304;48.794;9.820;2023-07-16T09:13:43;2.38;;;1.60;;
40595;SDS011;26304;48.794;9.820;2023-07-16T09:19:27;2.70;;;1.52;;
40595;SDS011;26304;48.794;9.820;2023-07-16T09:25:13;2.80;;;1.73;;
40595;SDS011;26304;48.794;9.820;2023-07-16T09:30:56;2.05;;;1.58;;
40595;SDS011;26304;48.794;9.820;2023-07-16T09:36:48;2.50;;;1.52;;
40595;SDS011;26304;48.794;9.820;2023-07-16T09:42:30;2.83;;;1.45;;
40595;SDS011;26304;48.794;9.820;2023-07-16T09:48:15;2.10;;;1.65;;
40595;SDS011;26304;48.794;9.820;2023-07-16T09:53:59;2.13;;;1.48;;
40595;SDS011;26304;48.794;9.820;2023-07-16T09:59:42;1.90;;;1.52;;
40595;SDS011;26304;48.794;9.820;2023-07-16T10:05:27;1.45;;;1.35;;
40595;SDS011;26304;48.794;9.820;2023-07-16T10:11:16;1.77;;;1.63;;
40595;SDS011;26304;48.794;9.820;2023-07-16T10:17:01;1.40;;;1.30;;
40595;SDS011;26304;48.794;9.820;2023-07-16T10:22:45;2.08;;;1.45;;
40595;SDS011;26304;48.794;9.820;2023-07-16T10:28:30;1.30;;;1.20;;
40595;SDS011;26304;48.794;9.820;2023-07-16T10:34:12;2.22;;;1.50;;
40595;SDS011;26304;48.794;9.820;2023-07-16T10:39:55;2.17;;;1.95;;
40595;SDS011;26304;48.794;9.820;2023-07-16T10:45:40;4.80;;;1.65;;
40595;SDS011;26304;48.794;9.820;2023-07-16T10:51:24;4.55;;;1.60;;
40595;SDS011;26304;48.794;9.820;2023-07-16T10:57:07;4.30;;;1.80;;
40595;SDS011;26304;48.794;9.820;2023-07-16T11:02:51;2.05;;;1.58;;
40595;SDS011;26304;48.794;9.820;2023-07-16T11:08:34;6.45;;;1.90;;
40595;SDS011;26304;48.794;9.820;2023-07-16T11:14:16;5.00;;;1.75;;
40595;SDS011;26304;48.794;9.820;2023-07-16T11:20:00;2.92;;;1.65;;
40595;SDS011;26304;48.794;9.820;2023-07-16T11:25:45;3.67;;;1.83;;
40595;SDS011;26304;48.794;9.820;2023-07-16T11:31:28;2.22;;;1.63;;
40595;SDS011;26304;48.794;9.820;2023-07-16T11:37:21;4.03;;;1.88;;
40595;SDS011;26304;48.794;9.820;2023-07-16T11:43:09;3.47;;;2.42;;
40595;SDS011;26304;48.794;9.820;2023-07-16T11:48:52;2.72;;;1.65;;
40595;SDS011;26304;48.794;9.820;2023-07-16T11:54:36;3.88;;;1.80;;
40595;SDS011;26304;48.794;9.820;2023-07-16T12:00:18;3.95;;;1.88;;
40595;SDS011;26304;48.794;9.820;2023-07-16T12:06:01;4.38;;;1.98;;
40595;SDS011;26304;48.794;9.820;2023-07-16T12:11:45;1.90;;;1.63;;
40595;SDS011;26304;48.794;9.820;2023-07-16T12:17:28;3.22;;;1.90;;
40595;SDS011;26304;48.794;9.820;2023-07-16T12:23:10;6.75;;;2.10;;
40595;SDS011;26304;48.794;9.820;2023-07-16T12:28:54;8.07;;;2.10;;
40595;SDS011;26304;48.794;9.820;2023-07-16T12:34:37;2.35;;;1.58;;
40595;SDS011;26304;48.794;9.820;2023-07-16T12:40:19;5.10;;;1.70;;
40595;SDS011;26304;48.794;9.820;2023-07-16T12:46:03;2.60;;;1.60;;
40595;SDS011;26304;48.794;9.820;2023-07-16T12:51:46;4.45;;;2.10;;
40595;SDS011;26304;48.794;9.820;2023-07-16T12:57:28;3.30;;;1.88;;
40595;SDS011;26304;48.794;9.820;2023-07-16T13:03:12;4.68;;;1.90;;
40595;SDS011;26304;48.794;9.820;2023-07-16T13:08:57;3.88;;;1.58;;
40595;SDS011;26304;48.794;9.820;2023-07-16T13:14:40;3.33;;;1.73;;
40595;SDS011;26304;48.794;9.820;2023-07-16T13:20:23;2.50;;;1.50;;
40595;SDS011;26304;48.794;9.820;2023-07-16T13:26:06;4.53;;;1.73;;
40595;SDS011;26304;48.794;9.820;2023-07-16T13:31:48;3.22;;;1.55;;
40595;SDS011;26304;48.794;9.820;2023-07-16T13:37:32;2.83;;;1.40;;
40595;SDS011;26304;48.794;9.820;2023-07-16T13:43:14;3.63;;;1.75;;
40595;SDS011;26304;48.794;9.820;2023-07-16T13:48:57;2.85;;;1.38;;
40595;SDS011;26304;48.794;9.820;2023-07-16T13:54:42;4.63;;;1.70;;
40595;SDS011;26304;48.794;9.820;2023-07-16T14:00:24;5.63;;;1.30;;
40595;SDS011;26304;48.794;9.820;2023-07-16T14:06:07;1.50;;;1.40;;
40595;SDS011;26304;48.794;9.820;2023-07-16T14:11:51;1.55;;;1.23;;
40595;SDS011;26304;48.794;9.820;2023-07-16T14:17:33;2.88;;;1.20;;
40595;SDS011;26304;48.794;9.820;2023-07-16T14:23:15;1.77;;;1.38;;
40595;SDS011;26304;48.794;9.820;2023-07-16T14:28:59;5.35;;;1.38;;
40595;SDS011;26304;48.794;9.820;2023-07-16T14:34:42;1.38;;;1.27;;
40595;SDS011;26304;48.794;9.820;2023-07-16T14:40:24;1.95;;;1.25;;
40595;SDS011;26304;48.794;9.820;2023-07-16T14:46:08;3.00;;;1.38;;
40595;SDS011;26304;48.794;9.820;2023-07-16T14:51:56;4.47;;;1.15;;
40595;SDS011;26304;48.794;9.820;2023-07-16T14:57:38;20.42;;;2.63;;
40595;SDS011;26304;48.794;9.820;2023-07-16T15:03:23;6.95;;;1.67;;
40595;SDS011;26304;48.794;9.820;2023-07-16T15:09:05;9.95;;;2.15;;
40595;SDS011;26304;48.794;9.820;2023-07-16T15:14:48;3.85;;;1.60;;
40595;SDS011;26304;48.794;9.820;2023-07-16T15:20:32;2.17;;;1.52;;
40595;SDS011;26304;48.794;9.820;2023-07-16T15:26:14;1.73;;;1.63;;
40595;SDS011;26304;48.794;9.820;2023-07-16T15:31:57;2.05;;;1.60;;
40595;SDS011;26304;48.794;9.820;2023-07-16T15:37:41;3.30;;;1.70;;
40595;SDS011;26304;48.794;9.820;2023-07-16T15:43:24;2.67;;;1.92;;
40595;SDS011;26304;48.794;9.820;2023-07-16T15:49:06;1.70;;;1.60;;
40595;SDS011;26304;48.794;9.820;2023-07-16T15:54:50;2.30;;;1.58;;
40595;SDS011;26304;48.794;9.820;2023-07-16T16:00:32;2.80;;;1.80;;
40595;SDS011;26304;48.794;9.820;2023-07-16T16:06:15;2.13;;;2.00;;
40595;SDS011;26304;48.794;9.820;2023-07-16T16:11:59;3.95;;;1.90;;
40595;SDS011;26304;48.794;9.820;2023-07-16T16:17:44;2.22;;;2.03;;
40595;SDS011;26304;48.794;9.820;2023-07-16T16:23:26;4.72;;;2.00;;
40595;SDS011;26304;48.794;9.820;2023-07-16T16:29:10;5.90;;;2.20;;
40595;SDS011;26304;48.794;9.820;2023-07-16T16:34:54;8.02;;;2.38;;
40595;SDS011;26304;48.794;9.820;2023-07-16T16:40:36;9.23;;;2.50;;
40595;SDS011;26304;48.794;9.820;2023-07-16T16:46:21;14.80;;;3.13;;
40595;SDS011;26304;48.794;9.820;2023-07-16T16:52:03;10.43;;;2.40;;
40595;SDS011;26304;48.794;9.820;2023-07-16T16:57:46;4.45;;;2.30;;
40595;SDS011;26304;48.794;9.820;2023-07-16T17:03:30;2.63;;;2.05;;
40595;SDS011;26304;48.794;9.820;2023-07-16T17:09:13;3.03;;;2.00;;
40595;SDS011;26304;48.794;9.820;2023-07-16T17:14:55;2.65;;;1.95;;
40595;SDS011;26304;48.794;9.820;2023-07-16T17:20:39;2.38;;;1.92;;
40595;SDS011;26304;48.794;9.820;2023-07-16T17:26:21;4.85;;;2.30;;
40595;SDS011;26304;48.794;9.820;2023-07-16T17:32:05;2.55;;;2.35;;
40595;SDS011;26304;48.794;9.820;2023-07-16T17:37:50;2.00;;;1.73;;
40595;SDS011;26304;48.794;9.820;2023-07-16T17:43:32;3.45;;;1.80;;
40595;SDS011;26304;48.794;9.820;2023-07-16T17:49:15;3.13;;;2.20;;
40595;SDS011;26304;48.794;9.820;2023-07-16T17:54:59;2.67;;;1.90;;
40595;SDS011;26304;48.794;9.820;2023-07-16T18:00:41;2.55;;;2.00;;
40595;SDS011;26304;48.794;9.820;2023-07-16T18:06:23;1.80;;;1.70;;
40595;SDS011;26304;48.794;9.820;2023-07-16T18:12:08;2.70;;;2.10;;
40595;SDS011;26304;48.794;9.820;2023-07-16T18:17:51;2.10;;;1.88;;
40595;SDS011;26304;48.794;9.820;2023-07-16T18:23:33;2.38;;;2.17;;
40595;SDS011;26304;48.794;9.820;2023-07-16T18:29:17;2.65;;;2.20;;
40595;SDS011;26304;48.794;9.820;2023-07-16T18:34:59;5.53;;;2.00;;
40595;SDS011;26304;48.794;9.820;2023-07-16T18:40:42;2.92;;;2.20;;
40595;SDS011;26304;48.794;9.820;2023-07-16T18:46:25;1.60;;;1.50;;
40595;SDS011;26304;48.794;9.820;2023-07-16T18:52:08;5.15;;;2.38;;
40595;SDS011;26304;48.794;9.820;2023-07-16T18:57:50;4.30;;;2.17;;
40595;SDS011;26304;48.794;9.820;2023-07-16T19:03:34;2.40;;;2.20;;
40595;SDS011;26304;48.794;9.820;2023-07-16T19:09:17;3.72;;;2.72;;
40595;SDS011;26304;48.794;9.820;2023-07-16T19:15:02;4.32;;;2.10;;
40595;SDS011;26304;48.794;9.820;2023-07-16T19:20:45;2.33;;;2.03;;
40595;SDS011;26304;48.794;9.820;2023-07-16T19:26:28;2.17;;;1.83;;
40595;SDS011;26304;48.794;9.820;2023-07-16T19:32:10;2.38;;;2.17;;
40595;SDS011;26304;48.794;9.820;2023-07-16T19:37:54;3.33;;;1.65;;
40595;SDS011;26304;48.794;9.820;2023-07-16T19:43:37;2.40;;;2.20;;
40595;SDS011;26304;48.794;9.820;2023-07-16T19:49:19;3.20;;;2.40;;
40595;SDS011;26304;48.794;9.820;2023-07-16T19:55:03;9.50;;;2.30;;
40595;SDS011;26304;48.794;9.820;2023-07-16T20:00:46;2.40;;;1.92;;
40595;SDS011;26304;48.794;9.820;2023-07-16T20:06:29;3.33;;;2.13;;
40595;SDS011;26304;48.794;9.820;2023-07-16T20:12:13;2.40;;;2.20;;
40595;SDS011;26304;48.794;9.820;2023-07-16T20:17:55;3.65;;;2.30;;
40595;SDS011;26304;48.794;9.820;2023-07-16T20:23:38;2.67;;;2.20;;
40595;SDS011;26304;48.794;9.820;2023-07-16T20:29:21;2.10;;;1.90;;
40595;SDS011;26304;48.794;9.820;2023-07-16T20:35:04;2.90;;;1.95;;
40595;SDS011;26304;48.794;9.820;2023-07-16T20:40:47;2.50;;;2.13;;
40595;SDS011;26304;48.794;9.820;2023-07-16T20:46:31;3.10;;;2.15;;
40595;SDS011;26304;48.794;9.820;2023-07-16T20:52:14;3.78;;;2.42;;
40595;SDS011;26304;48.794;9.820;2023-07-16T20:57:56;2.63;;;2.42;;
40595;SDS011;26304;48.794;9.820;2023-07-16T21:03:40;2.72;;;2.20;;
40595;SDS011;26304;48.794;9.820;2023-07-16T21:09:22;2.45;;;2.13;;
40595;SDS011;26304;48.794;9.820;2023-07-16T21:15:05;3.13;;;2.42;;
40595;SDS011;26304;48.794;9.820;2023-07-16T21:20:52;2.47;;;2.28;;
40595;SDS011;26304;48.794;9.820;2023-07-16T21:26:35;2.15;;;1.95;;
40595;SDS011;26304;48.794;9.820;2023-07-16T21:32:18;2.90;;;1.85;;
40595;SDS011;26304;48.794;9.820;2023-07-16T21:38:01;2.85;;;2.30;;
40595;SDS011;26304;48.794;9.820;2023-07-16T21:43:45;2.70;;;2.30;;
40595;SDS011;26304;48.794;9.820;2023-07-16T21:49:27;3.30;;;2.28;;
40595;SDS011;26304;48.794;9.820;2023-07-16T21:55:11;2.72;;;2.53;;
40595;SDS011;26304;48.794;9.820;2023-07-16T22:00:53;2.65;;;2.45;;
40595;SDS011;26304;48.794;9.820;2023-07-16T22:06:36;3.47;;;2.10;;
40595;SDS011;26304;48.794;9.820;2023-07-16T22:12:19;2.50;;;2.30;;
40595;SDS011;26304;48.794;9.820;2023-07-16T22:18:02;3.47;;;2.25;;
40595;SDS011;26304;48.794;9.820;2023-07-16T22:23:44;2.78;;;2.40;;
40595;SDS011;26304;48.794;9.820;2023-07-16T22:29:28;4.75;;;2.25;;
40595;SDS011;26304;48.794;9.820;2023-07-16T22:35:10;3.72;;;2.50;;
40595;SDS011;26304;48.794;9.820;2023-07-16T22:40:53;2.45;;;2.15;;
40595;SDS011;26304;48.794;9.820;2023-07-16T22:46:37;3.17;;;1.90;;
40595;SDS011;26304;48.794;9.820;2023-07-16T22:52:19;3.40;;;2.58;;
40595;SDS011;26304;48.794;9.820;2023-07-16T22:58:02;3.28;;;2.42;;
40595;SDS011;26304;48.794;9.820;2023-07-16T23:03:45;2.83;;;2.63;;
40595;SDS011;26304;48.794;9.820;2023-07-16T23:09:28;4.78;;;2.58;;
40595;SDS011;26304;48.794;9.820;2023-07-16T23:15:10;2.95;;;2.42;;
40595;SDS011;26304;48.794;9.820;2023-07-16T23:20:57;2.88;;;2.22;;
40595;SDS011;26304;48.794;9.820;2023-07-16T23:26:39;2.58;;;2.25;;
40595;SDS011;26304;48.794;9.820;2023-07-16T23:32:22;2.55;;;2.35;;
40595;SDS011;26304;48.794;9.820;2023-07-16T23:38:06;2.47;;;2.20;;
40595;SDS011;26304;48.794;9.820;2023-07-16T23:43:48;4.32;;;2.80;;
40595;SDS011;26304;48.794;9.820;2023-07-16T23:49:31;2.40;;;2.20;;
40595;SDS011;26304;48.794;9.820;2023-07-16T23:55:15;2.83;;;2.45;;
